createdAt,value
2019-06-01T00:01:25.511Z,61.40
2019-06-01T00:03:55.932Z,61.60
2019-06-01T00:06:26.133Z,62.20
2019-06-01T00:08:56.417Z,62.30
2019-06-01T00:11:26.655Z,61.70
2019-06-01T00:13:56.886Z,61.90
2019-06-01T00:18:58.590Z,61.40
2019-06-01T00:21:29.954Z,62.10
2019-06-01T00:24:01.194Z,62.40
2019-06-01T00:26:31.508Z,62.70
2019-06-01T00:29:01.674Z,63.50
2019-06-01T00:31:31.878Z,62.90
2019-06-01T00:34:02.126Z,62.40
2019-06-01T00:36:32.373Z,63.00
2019-06-01T00:39:04.801Z,62.90
2019-06-01T00:41:36.323Z,62.90
2019-06-01T00:44:12.949Z,62.70
2019-06-01T00:46:44.515Z,62.90
2019-06-01T00:49:20.842Z,62.90
2019-06-01T00:51:52.057Z,62.90
2019-06-01T00:54:22.959Z,62.90
2019-06-01T00:56:53.848Z,63.10
2019-06-01T00:59:24.284Z,63.30
2019-06-01T01:01:54.503Z,63.60
2019-06-01T01:04:24.730Z,63.20
2019-06-01T01:06:54.950Z,63.50
2019-06-01T01:09:25.504Z,63.70
2019-06-01T01:11:56.133Z,63.30
2019-06-01T01:14:26.438Z,63.30
2019-06-01T01:16:56.653Z,63.40
2019-06-01T01:21:58.986Z,63.60
2019-06-01T01:24:29.250Z,63.70
2019-06-01T01:26:59.383Z,63.50
2019-06-01T01:29:29.978Z,64.20
2019-06-01T01:32:00.231Z,63.80
2019-06-01T01:34:30.538Z,63.80
2019-06-01T01:37:00.828Z,63.90
2019-06-01T01:39:31.083Z,63.90
2019-06-01T01:42:01.314Z,64.00
2019-06-01T01:44:31.512Z,64.40
2019-06-01T01:47:01.845Z,64.30
2019-06-01T01:49:32.076Z,64.10
2019-06-01T01:52:02.267Z,64.20
2019-06-01T01:54:32.560Z,64.30
2019-06-01T01:57:02.852Z,64.50
2019-06-01T01:59:33.068Z,64.40
2019-06-01T02:02:04.432Z,64.40
2019-06-01T02:04:44.103Z,64.40
2019-06-01T02:07:14.404Z,64.50
2019-06-01T02:09:44.677Z,64.50
2019-06-01T02:12:14.966Z,64.60
2019-06-01T02:14:45.152Z,64.60
2019-06-01T02:17:15.377Z,64.60
2019-06-01T02:19:45.641Z,64.80
2019-06-01T02:22:15.869Z,64.70
2019-06-01T02:24:46.048Z,64.70
2019-06-01T02:27:21.248Z,64.80
2019-06-01T02:32:22.107Z,63.90
2019-06-01T02:34:54.149Z,64.50
2019-06-01T02:37:24.217Z,64.60
2019-06-01T02:39:54.525Z,64.40
2019-06-01T02:42:24.747Z,64.50
2019-06-01T02:44:55.210Z,64.50
2019-06-01T02:47:25.483Z,64.60
2019-06-01T02:49:56.127Z,64.60
2019-06-01T02:52:27.539Z,64.80
2019-06-01T02:55:24.784Z,64.60
2019-06-01T03:01:37.918Z,64.90
2019-06-01T03:04:11.005Z,64.60
2019-06-01T03:07:17.472Z,64.80
2019-06-01T03:09:48.440Z,65.20
2019-06-01T03:12:22.007Z,65.20
2019-06-01T03:14:53.940Z,65.00
2019-06-01T03:17:31.483Z,65.20
2019-06-01T03:20:04.594Z,65.10
2019-06-01T03:22:37.881Z,65.30
2019-06-01T03:25:08.281Z,65.60
2019-06-01T03:27:41.660Z,65.40
2019-06-01T03:30:15.400Z,66.10
2019-06-01T03:32:44.529Z,65.40
2019-06-01T03:35:16.776Z,65.60
2019-06-01T03:37:47.966Z,65.40
2019-06-01T03:40:23.731Z,65.40
2019-06-01T03:42:50.058Z,65.50
2019-06-01T03:45:20.340Z,65.40
2019-06-01T03:47:53.760Z,65.40
2019-06-01T03:50:24.244Z,65.40
2019-06-01T03:52:54.568Z,65.50
2019-06-01T03:55:25.856Z,65.60
2019-06-01T03:57:57.267Z,65.40
2019-06-01T04:00:27.490Z,65.30
2019-06-01T04:03:00.846Z,65.30
2019-06-01T04:05:31.751Z,65.50
2019-06-01T04:08:01.971Z,65.30
2019-06-01T04:10:32.210Z,65.10
2019-06-01T04:13:03.530Z,65.20
2019-06-01T04:15:34.407Z,65.30
2019-06-01T04:18:05.919Z,65.30
2019-06-01T04:20:36.357Z,65.30
2019-06-01T04:23:06.576Z,65.20
2019-06-01T04:25:36.792Z,65.10
2019-06-01T04:28:14.552Z,65.00
2019-06-01T04:30:44.787Z,65.00
2019-06-01T04:33:15.081Z,65.00
2019-06-01T04:35:45.368Z,65.10
2019-06-01T04:38:25.662Z,64.90
2019-06-01T04:40:55.954Z,65.00
2019-06-01T04:43:26.241Z,65.50
2019-06-01T04:45:56.670Z,64.70
2019-06-01T04:48:26.925Z,64.80
2019-06-01T04:50:57.132Z,65.60
2019-06-01T04:53:27.354Z,64.80
2019-06-01T04:55:57.546Z,64.80
2019-06-01T04:58:27.863Z,64.80
2019-06-01T05:00:58.080Z,64.80
2019-06-01T05:03:28.296Z,65.60
2019-06-01T05:05:58.597Z,64.80
2019-06-01T05:08:28.896Z,64.70
2019-06-01T05:11:10.314Z,64.70
2019-06-01T05:13:46.743Z,64.40
2019-06-01T05:16:16.969Z,64.40
2019-06-01T05:18:47.294Z,64.30
2019-06-01T05:21:17.516Z,64.40
2019-06-01T05:23:47.733Z,64.10
2019-06-01T05:26:18.971Z,64.20
2019-06-01T05:28:49.190Z,64.40
2019-06-01T05:31:24.910Z,64.50
2019-06-01T05:33:51.659Z,64.50
2019-06-01T05:36:38.863Z,64.60
2019-06-01T05:39:10.235Z,64.50
2019-06-01T05:41:40.513Z,64.30
2019-06-01T05:44:10.788Z,64.10
2019-06-01T05:46:39.105Z,64.00
2019-06-01T05:49:11.973Z,63.80
2019-06-01T05:51:41.243Z,64.00
2019-06-01T06:06:14.336Z,62.20
2019-06-01T06:08:44.557Z,62.90
2019-06-01T06:11:14.967Z,62.40
2019-06-01T06:13:45.318Z,61.90
2019-06-01T06:16:15.771Z,61.70
2019-06-01T06:18:45.973Z,61.70
2019-06-01T06:21:16.497Z,61.70
2019-06-01T06:23:46.710Z,61.70
2019-06-01T06:26:18.680Z,62.10
2019-06-01T06:29:18.950Z,61.90
2019-06-01T06:31:52.342Z,61.50
2019-06-01T06:34:23.673Z,62.00
2019-06-01T06:36:53.969Z,62.30
2019-06-01T06:39:24.300Z,61.30
2019-06-01T06:41:54.607Z,61.50
2019-06-01T06:44:31.251Z,61.40
2019-06-01T06:46:59.520Z,61.40
2019-06-01T07:01:50.720Z,60.50
2019-06-01T07:04:21.380Z,59.90
2019-06-01T07:06:51.667Z,60.50
2019-06-01T07:09:21.990Z,60.80
2019-06-01T07:11:52.169Z,60.70
2019-06-01T07:14:23.493Z,60.80
2019-06-01T07:16:53.927Z,61.40
2019-06-01T07:21:53.958Z,59.90
2019-06-01T07:24:24.178Z,60.40
2019-06-01T07:26:54.372Z,60.30
2019-06-01T07:29:24.598Z,60.00
2019-06-01T07:31:54.814Z,59.40
2019-06-01T07:34:37.248Z,59.60
2019-06-01T07:36:58.746Z,59.40
2019-06-01T07:39:30.249Z,59.10
2019-06-01T07:42:00.578Z,59.00
2019-06-01T07:44:36.309Z,58.70
2019-06-01T07:47:06.606Z,58.20
2019-06-01T07:49:36.852Z,58.70
2019-06-01T07:52:13.006Z,58.30
2019-06-01T07:54:40.087Z,57.80
2019-06-01T07:59:41.914Z,55.00
2019-06-01T08:02:13.976Z,56.30
2019-06-01T08:07:33.567Z,56.30
2019-06-01T08:10:07.068Z,56.10
2019-06-01T08:12:37.398Z,56.00
2019-06-01T08:15:08.249Z,55.90
2019-06-01T08:17:38.529Z,56.00
2019-06-01T08:20:18.019Z,54.40
2019-06-01T08:22:48.233Z,55.50
2019-06-01T08:25:18.468Z,55.80
2019-06-01T08:27:49.686Z,55.10
2019-06-01T08:30:19.306Z,54.50
2019-06-01T08:32:50.653Z,54.30
2019-06-01T08:35:25.075Z,57.90
2019-06-01T08:37:56.768Z,54.30
2019-06-01T08:40:27.400Z,54.30
2019-06-01T08:42:57.683Z,54.80
2019-06-01T08:45:41.806Z,55.10
2019-06-01T08:48:12.288Z,53.50
2019-06-01T08:50:45.879Z,53.50
2019-06-01T09:49:10.844Z,51.00
2019-06-01T09:51:41.064Z,51.70
2019-06-01T09:54:11.277Z,50.20
2019-06-01T09:56:42.610Z,50.20
2019-06-01T09:59:12.815Z,49.30
2019-06-01T10:01:43.017Z,49.70
2019-06-01T10:04:13.319Z,49.70
2019-06-01T10:06:43.610Z,49.50
2019-06-01T10:09:14.116Z,49.90
2019-06-01T10:11:44.283Z,48.80
2019-06-01T10:14:20.124Z,47.40
2019-06-01T10:16:50.314Z,47.80
2019-06-01T10:23:42.720Z,48.80
2019-06-01T10:26:14.207Z,48.50
2019-06-01T10:28:44.436Z,49.80
2019-06-01T10:31:34.567Z,49.20
2019-06-01T10:34:05.191Z,49.40
2019-06-01T10:36:35.960Z,48.10
2019-06-01T10:39:08.188Z,48.70
2019-06-01T10:48:24.568Z,48.50
2019-06-01T10:51:22.258Z,48.50
2019-06-01T10:54:05.177Z,48.30
2019-06-01T11:00:14.932Z,48.30
2019-06-01T11:02:46.225Z,48.40
2019-06-01T11:08:54.721Z,48.50
2019-06-01T11:18:21.503Z,48.40
2019-06-01T11:20:57.080Z,48.00
2019-06-01T11:24:01.904Z,48.00
2019-06-01T11:26:33.296Z,47.80
2019-06-01T11:29:35.874Z,47.70
2019-06-01T11:42:34.756Z,47.60
2019-06-01T11:45:19.345Z,47.70
2019-06-01T11:47:49.679Z,48.10
2019-06-01T11:50:21.051Z,48.40
2019-06-01T11:55:31.139Z,48.00
2019-06-01T12:12:57.884Z,44.80
2019-06-01T12:16:10.390Z,43.10
2019-06-01T12:19:07.757Z,43.90
2019-06-01T12:25:33.057Z,43.70
2019-06-01T12:28:03.337Z,43.80
2019-06-01T12:30:43.789Z,44.30
2019-06-01T12:33:46.388Z,43.80
2019-06-01T12:36:16.186Z,42.70
2019-06-01T12:39:02.576Z,41.80
2019-06-01T12:41:58.335Z,43.00
2019-06-01T12:50:14.939Z,43.40
2019-06-01T12:53:05.239Z,43.80
2019-06-01T12:55:48.877Z,42.40
2019-06-01T12:58:20.220Z,43.40
2019-06-01T13:01:22.367Z,43.60
2019-06-01T13:04:25.976Z,43.70
2019-06-01T13:07:02.601Z,44.40
2019-06-01T13:09:50.772Z,44.70
2019-06-01T13:12:21.167Z,44.80
2019-06-01T13:15:00.925Z,45.00
2019-06-01T13:17:31.218Z,45.40
2019-06-01T13:20:07.817Z,45.50
2019-06-01T13:22:38.027Z,43.80
2019-06-01T13:25:08.608Z,43.70
2019-06-01T13:33:56.800Z,42.00
2019-06-01T13:36:46.678Z,42.00
2019-06-01T13:44:30.037Z,41.00
2019-06-01T13:47:00.214Z,41.10
2019-06-01T13:52:20.170Z,39.90
2019-06-01T13:54:50.651Z,40.20
2019-06-01T13:57:34.126Z,40.90
2019-06-01T14:00:34.585Z,40.10
2019-06-01T14:03:13.069Z,39.70
2019-06-01T14:05:44.646Z,40.30
2019-06-01T14:08:28.538Z,40.20
2019-06-01T14:10:57.013Z,40.60
2019-06-01T14:17:04.332Z,40.20
2019-06-01T14:19:34.866Z,40.30
2019-06-01T14:22:36.357Z,39.80
2019-06-01T14:25:13.595Z,39.70
2019-06-01T14:27:39.108Z,39.70
2019-06-01T14:30:09.575Z,39.20
2019-06-01T14:32:39.868Z,39.30
2019-06-01T14:35:10.263Z,39.50
2019-06-01T14:37:44.617Z,39.90
2019-06-01T14:40:41.206Z,40.30
2019-06-01T14:43:35.726Z,40.60
2019-06-01T14:46:05.944Z,41.10
2019-06-01T14:48:53.647Z,41.50
2019-06-01T14:51:25.959Z,42.80
2019-06-01T14:53:59.347Z,43.20
2019-06-01T14:56:31.852Z,43.60
2019-06-01T15:01:33.223Z,44.10
2019-06-01T15:04:03.572Z,45.20
2019-06-01T15:06:44.467Z,45.70
2019-06-01T15:09:18.884Z,45.90
2019-06-01T15:11:46.557Z,46.20
2019-06-01T15:14:20.321Z,46.10
2019-06-01T15:16:51.693Z,46.20
2019-06-01T15:19:34.283Z,45.70
2019-06-01T15:22:06.875Z,45.40
2019-06-01T15:24:36.923Z,45.80
2019-06-01T15:27:19.430Z,45.20
2019-06-01T15:29:50.686Z,45.50
2019-06-01T15:32:29.261Z,47.00
2019-06-01T15:35:14.532Z,46.80
2019-06-01T15:37:44.784Z,48.00
2019-06-01T15:42:59.383Z,48.10
2019-06-01T15:48:09.000Z,48.60
2019-06-01T15:50:39.199Z,50.90
2019-06-01T15:53:09.395Z,50.20
2019-06-01T15:55:39.797Z,50.50
2019-06-01T15:58:10.534Z,50.50
2019-06-01T16:00:55.017Z,50.50
2019-06-01T16:03:25.219Z,55.30
2019-06-01T16:06:12.095Z,52.10
2019-06-01T16:08:53.228Z,52.40
2019-06-01T16:11:23.693Z,52.80
2019-06-01T16:16:25.769Z,53.40
2019-06-01T16:18:59.892Z,54.00
2019-06-01T16:21:32.915Z,53.90
2019-06-01T16:24:11.291Z,54.30
2019-06-01T16:26:56.255Z,54.60
2019-06-01T16:29:26.592Z,54.70
2019-06-01T16:31:56.829Z,54.20
2019-06-01T16:37:47.951Z,54.70
2019-06-01T16:40:18.336Z,55.90
2019-06-01T16:43:06.989Z,55.90
2019-06-01T16:48:36.079Z,57.00
2019-06-01T16:53:36.020Z,57.10
2019-06-01T16:56:07.410Z,58.00
2019-06-01T16:58:44.043Z,58.40
2019-06-01T17:01:14.257Z,58.30
2019-06-01T17:03:52.394Z,58.60
2019-06-01T17:06:22.714Z,58.40
2019-06-01T17:08:52.928Z,57.80
2019-06-01T17:11:23.149Z,58.50
2019-06-01T17:14:28.240Z,61.60
2019-06-01T17:16:57.209Z,66.00
2019-06-01T17:21:57.344Z,57.30
2019-06-01T17:24:33.730Z,58.50
2019-06-01T17:32:35.565Z,58.10
2019-06-01T17:35:07.045Z,59.40
2019-06-01T17:37:59.267Z,59.00
2019-06-01T17:40:37.562Z,59.90
2019-06-01T17:43:02.894Z,58.90
2019-06-01T17:45:39.356Z,59.70
2019-06-01T17:48:21.642Z,59.30
2019-06-01T17:50:52.703Z,59.10
2019-06-01T17:53:36.454Z,59.60
2019-06-01T17:56:06.678Z,59.20
2019-06-01T18:01:19.447Z,60.10
2019-06-01T18:04:02.016Z,59.90
2019-06-01T18:06:38.298Z,60.50
2019-06-01T18:09:10.286Z,59.70
2019-06-01T18:11:40.759Z,60.60
2019-06-01T18:14:12.402Z,61.60
2019-06-01T18:16:44.649Z,60.80
2019-06-01T18:26:14.759Z,61.00
2019-06-01T18:28:44.990Z,61.20
2019-06-01T18:31:16.319Z,70.40
2019-06-01T18:33:46.646Z,61.30
2019-06-01T18:36:49.702Z,61.80
2019-06-01T18:39:42.569Z,61.00
2019-06-01T18:45:24.112Z,60.60
2019-06-01T18:48:08.046Z,60.90
2019-06-01T18:54:29.565Z,61.20
2019-06-01T18:57:21.167Z,60.80
2019-06-01T19:00:20.928Z,61.00
2019-06-01T19:05:55.776Z,61.70
2019-06-01T19:15:41.162Z,63.40
2019-06-01T19:18:17.679Z,64.20
2019-06-01T19:21:28.481Z,63.70
2019-06-01T19:23:59.707Z,64.20
2019-06-01T19:26:29.921Z,76.80
2019-06-01T19:36:48.391Z,65.10
2019-06-01T19:42:26.372Z,64.20
2019-06-01T19:54:12.834Z,64.70
2019-06-01T19:56:43.225Z,64.60
2019-06-01T20:02:50.933Z,65.00
2019-06-01T20:05:21.253Z,65.60
2019-06-01T20:07:53.030Z,64.80
2019-06-01T22:47:41.398Z,67.80
2019-06-01T22:50:12.026Z,67.90
2019-06-01T22:52:42.236Z,68.00
2019-06-01T22:55:12.856Z,68.00
2019-06-01T22:57:43.348Z,68.10
2019-06-01T23:00:15.367Z,68.20
2019-06-01T23:02:45.545Z,68.30
2019-06-01T23:05:15.747Z,68.30
2019-06-01T23:07:45.985Z,68.20
2019-06-01T23:36:26.638Z,68.90
2019-06-01T23:39:07.230Z,68.70
2019-06-01T23:41:37.451Z,68.70
2019-06-01T23:44:11.931Z,68.70
2019-06-01T23:46:41.566Z,69.00
2019-06-01T23:49:20.019Z,68.70
2019-06-01T23:51:57.128Z,69.10
2019-06-01T23:54:27.748Z,68.90
2019-06-01T23:57:11.556Z,68.80
2019-06-01T23:59:41.842Z,69.60
